sensor_id;sensor_type;location;lat;lon;timestamp;temperature;humidity
2489;DHT22;1255;48.716;9.124;2022-09-13T00:00:31;13.80;99.90
2489;DHT22;1255;48.716;9.124;2022-09-13T00:02:58;13.80;99.90
2489;DHT22;1255;48.716;9.124;2022-09-13T00:05:25;13.80;99.90
2489;DHT22;1255;48.716;9.124;2022-09-13T00:07:52;13.80;99.90
2489;DHT22;1255;48.716;9.124;2022-09-13T00:10:20;13.80;99.90
2489;DHT22;1255;48.716;9.124;2022-09-13T00:12:47;13.80;99.90
2489;DHT22;1255;48.716;9.124;2022-09-13T00:15:14;13.80;99.90
2489;DHT22;1255;48.716;9.124;2022-09-13T00:17:41;13.80;99.90
2489;DHT22;1255;48.716;9.124;2022-09-13T00:20:08;13.70;99.90
2489;DHT22;1255;48.716;9.124;2022-09-13T00:22:35;13.70;99.90
2489;DHT22;1255;48.716;9.124;2022-09-13T00:25:02;13.70;99.90
2489;DHT22;1255;48.716;9.124;2022-09-13T00:27:31;13.70;99.90
2489;DHT22;1255;48.716;9.124;2022-09-13T00:29:58;13.70;99.90
2489;DHT22;1255;48.716;9.124;2022-09-13T00:32:25;13.60;99.90
2489;DHT22;1255;48.716;9.124;2022-09-13T00:34:53;13.60;99.90
2489;DHT22;1255;48.716;9.124;2022-09-13T00:37:20;13.60;99.90
2489;DHT22;1255;48.716;9.124;2022-09-13T00:39:47;13.50;99.90
2489;DHT22;1255;48.716;9.124;2022-09-13T00:42:14;13.50;99.90
2489;DHT22;1255;48.716;9.124;2022-09-13T00:44:51;13.50;99.90
2489;DHT22;1255;48.716;9.124;2022-09-13T00:47:24;13.50;99.90
2489;DHT22;1255;48.716;9.124;2022-09-13T00:49:54;13.50;99.90
2489;DHT22;1255;48.716;9.124;2022-09-13T00:52:24;13.50;99.90
2489;DHT22;1255;48.716;9.124;2022-09-13T00:54:56;13.50;99.90
2489;DHT22;1255;48.716;9.124;2022-09-13T00:57:25;13.50;99.90
2489;DHT22;1255;48.716;9.124;2022-09-13T00:59:59;13.50;99.90
2489;DHT22;1255;48.716;9.124;2022-09-13T01:02:31;13.40;99.90
2489;DHT22;1255;48.716;9.124;2022-09-13T01:04:58;13.40;99.90
2489;DHT22;1255;48.716;9.124;2022-09-13T01:07:25;13.40;99.90
2489;DHT22;1255;48.716;9.124;2022-09-13T01:09:52;13.40;99.90
2489;DHT22;1255;48.716;9.124;2022-09-13T01:12:27;13.40;99.90
2489;DHT22;1255;48.716;9.124;2022-09-13T01:15:00;13.40;99.90
2489;DHT22;1255;48.716;9.124;2022-09-13T01:17:30;13.30;99.90
2489;DHT22;1255;48.716;9.124;2022-09-13T01:19:58;13.30;99.90
2489;DHT22;1255;48.716;9.124;2022-09-13T01:31:46;13.20;99.90
2489;DHT22;1255;48.716;9.124;2022-09-13T01:34:25;13.20;99.90
2489;DHT22;1255;48.716;9.124;2022-09-13T01:37:05;13.20;99.90
2489;DHT22;1255;48.716;9.124;2022-09-13T01:39:49;13.20;99.90
2489;DHT22;1255;48.716;9.124;2022-09-13T01:42:27;13.20;99.90
2489;DHT22;1255;48.716;9.124;2022-09-13T01:45:04;13.20;99.90
2489;DHT22;1255;48.716;9.124;2022-09-13T01:47:41;13.20;99.90
2489;DHT22;1255;48.716;9.124;2022-09-13T01:50:16;13.10;99.90
2489;DHT22;1255;48.716;9.124;2022-09-13T01:52:52;13.10;99.90
2489;DHT22;1255;48.716;9.124;2022-09-13T01:55:25;13.10;99.90
2489;DHT22;1255;48.716;9.124;2022-09-13T01:57:59;13.10;99.90
2489;DHT22;1255;48.716;9.124;2022-09-13T02:00:33;13.10;99.90
2489;DHT22;1255;48.716;9.124;2022-09-13T02:03:05;13.10;99.90
2489;DHT22;1255;48.716;9.124;2022-09-13T02:05:36;13.10;99.90
2489;DHT22;1255;48.716;9.124;2022-09-13T02:08:09;13.10;99.90
2489;DHT22;1255;48.716;9.124;2022-09-13T02:10:40;13.10;99.90
2489;DHT22;1255;48.716;9.124;2022-09-13T02:13:12;13.10;99.90
2489;DHT22;1255;48.716;9.124;2022-09-13T02:15:43;13.00;99.90
2489;DHT22;1255;48.716;9.124;2022-09-13T02:18:16;13.00;99.90
2489;DHT22;1255;48.716;9.124;2022-09-13T02:20:46;13.00;99.90
2489;DHT22;1255;48.716;9.124;2022-09-13T02:23:17;13.00;99.90
2489;DHT22;1255;48.716;9.124;2022-09-13T02:25:48;13.00;99.90
2489;DHT22;1255;48.716;9.124;2022-09-13T02:28:20;13.00;99.90
2489;DHT22;1255;48.716;9.124;2022-09-13T02:30:51;13.00;99.90
2489;DHT22;1255;48.716;9.124;2022-09-13T02:33:24;13.00;99.90
2489;DHT22;1255;48.716;9.124;2022-09-13T02:35:55;13.00;99.90
2489;DHT22;1255;48.716;9.124;2022-09-13T02:38:26;13.00;99.90
2489;DHT22;1255;48.716;9.124;2022-09-13T02:40:59;13.00;99.90
2489;DHT22;1255;48.716;9.124;2022-09-13T02:43:32;13.00;99.90
2489;DHT22;1255;48.716;9.124;2022-09-13T02:46:11;13.00;99.90
2489;DHT22;1255;48.716;9.124;2022-09-13T02:48:48;13.00;99.90
2489;DHT22;1255;48.716;9.124;2022-09-13T02:51:24;13.00;99.90
2489;DHT22;1255;48.716;9.124;2022-09-13T02:54:03;13.00;99.90
2489;DHT22;1255;48.716;9.124;2022-09-13T02:56:41;13.10;99.90
2489;DHT22;1255;48.716;9.124;2022-09-13T02:59:14;13.10;99.90
2489;DHT22;1255;48.716;9.124;2022-09-13T03:01:46;13.10;99.90
2489;DHT22;1255;48.716;9.124;2022-09-13T03:04:16;13.10;99.90
2489;DHT22;1255;48.716;9.124;2022-09-13T03:06:42;13.20;99.90
2489;DHT22;1255;48.716;9.124;2022-09-13T03:09:09;13.20;99.90
2489;DHT22;1255;48.716;9.124;2022-09-13T03:11:50;13.20;99.90
2489;DHT22;1255;48.716;9.124;2022-09-13T03:14:28;13.20;99.90
2489;DHT22;1255;48.716;9.124;2022-09-13T03:17:10;13.30;99.90
2489;DHT22;1255;48.716;9.124;2022-09-13T03:19:58;13.30;99.90
2489;DHT22;1255;48.716;9.124;2022-09-13T03:22:57;13.40;99.90
2489;DHT22;1255;48.716;9.124;2022-09-13T03:25:33;13.40;99.90
2489;DHT22;1255;48.716;9.124;2022-09-13T03:28:11;13.40;99.90
2489;DHT22;1255;48.716;9.124;2022-09-13T03:30:45;13.40;99.90
2489;DHT22;1255;48.716;9.124;2022-09-13T03:33:22;13.40;99.90
2489;DHT22;1255;48.716;9.124;2022-09-13T03:35:56;13.40;99.90
2489;DHT22;1255;48.716;9.124;2022-09-13T03:38:30;13.30;99.90
2489;DHT22;1255;48.716;9.124;2022-09-13T03:41:03;13.30;99.90
2489;DHT22;1255;48.716;9.124;2022-09-13T03:43:35;13.30;99.90
2489;DHT22;1255;48.716;9.124;2022-09-13T03:46:05;13.30;99.90
2489;DHT22;1255;48.716;9.124;2022-09-13T03:48:36;13.20;99.90
2489;DHT22;1255;48.716;9.124;2022-09-13T03:51:05;13.20;99.90
2489;DHT22;1255;48.716;9.124;2022-09-13T03:53:35;13.20;99.90
2489;DHT22;1255;48.716;9.124;2022-09-13T03:56:12;13.20;99.90
2489;DHT22;1255;48.716;9.124;2022-09-13T03:58:39;13.20;99.90
2489;DHT22;1255;48.716;9.124;2022-09-13T04:01:06;13.20;99.90
2489;DHT22;1255;48.716;9.124;2022-09-13T04:03:34;13.20;99.90
2489;DHT22;1255;48.716;9.124;2022-09-13T04:06:01;13.20;99.90
2489;DHT22;1255;48.716;9.124;2022-09-13T04:08:29;13.20;99.90
2489;DHT22;1255;48.716;9.124;2022-09-13T04:10:56;13.20;99.90
2489;DHT22;1255;48.716;9.124;2022-09-13T04:13:23;13.10;99.90
2489;DHT22;1255;48.716;9.124;2022-09-13T04:15:50;13.10;99.90
2489;DHT22;1255;48.716;9.124;2022-09-13T04:18:17;13.10;99.90
2489;DHT22;1255;48.716;9.124;2022-09-13T04:20:43;13.10;99.90
2489;DHT22;1255;48.716;9.124;2022-09-13T04:23:10;13.00;99.90
2489;DHT22;1255;48.716;9.124;2022-09-13T04:25:38;13.00;99.90
2489;DHT22;1255;48.716;9.124;2022-09-13T04:28:05;13.00;99.90
2489;DHT22;1255;48.716;9.124;2022-09-13T04:30:32;13.00;99.90
2489;DHT22;1255;48.716;9.124;2022-09-13T04:32:59;12.90;99.90
2489;DHT22;1255;48.716;9.124;2022-09-13T04:35:26;12.90;99.90
2489;DHT22;1255;48.716;9.124;2022-09-13T04:37:54;12.90;99.90
2489;DHT22;1255;48.716;9.124;2022-09-13T04:40:21;12.90;99.90
2489;DHT22;1255;48.716;9.124;2022-09-13T04:42:49;12.90;99.90
2489;DHT22;1255;48.716;9.124;2022-09-13T04:45:16;12.90;99.90
2489;DHT22;1255;48.716;9.124;2022-09-13T04:47:43;12.90;99.90
2489;DHT22;1255;48.716;9.124;2022-09-13T04:50:10;12.90;99.90
2489;DHT22;1255;48.716;9.124;2022-09-13T04:52:36;12.90;99.90
2489;DHT22;1255;48.716;9.124;2022-09-13T04:55:04;12.90;99.90
2489;DHT22;1255;48.716;9.124;2022-09-13T04:57:31;13.00;99.90
2489;DHT22;1255;48.716;9.124;2022-09-13T05:00:00;13.00;99.90
2489;DHT22;1255;48.716;9.124;2022-09-13T05:02:27;13.00;99.90
2489;DHT22;1255;48.716;9.124;2022-09-13T05:04:54;13.00;99.90
2489;DHT22;1255;48.716;9.124;2022-09-13T05:07:21;13.00;99.90
2489;DHT22;1255;48.716;9.124;2022-09-13T05:09:47;13.10;99.90
2489;DHT22;1255;48.716;9.124;2022-09-13T05:12:14;13.10;99.90
2489;DHT22;1255;48.716;9.124;2022-09-13T05:14:40;13.10;99.90
2489;DHT22;1255;48.716;9.124;2022-09-13T05:17:09;13.10;99.90
2489;DHT22;1255;48.716;9.124;2022-09-13T05:19:36;13.10;99.90
2489;DHT22;1255;48.716;9.124;2022-09-13T05:24:28;13.10;99.90
2489;DHT22;1255;48.716;9.124;2022-09-13T05:26:54;13.10;99.90
2489;DHT22;1255;48.716;9.124;2022-09-13T05:29:21;13.10;99.90
2489;DHT22;1255;48.716;9.124;2022-09-13T05:31:48;13.10;99.90
2489;DHT22;1255;48.716;9.124;2022-09-13T05:34:16;13.10;99.90
2489;DHT22;1255;48.716;9.124;2022-09-13T05:36:44;13.10;99.90
2489;DHT22;1255;48.716;9.124;2022-09-13T05:39:12;13.20;99.90
2489;DHT22;1255;48.716;9.124;2022-09-13T05:41:40;13.20;99.90
2489;DHT22;1255;48.716;9.124;2022-09-13T05:44:06;13.20;99.90
2489;DHT22;1255;48.716;9.124;2022-09-13T05:46:34;13.20;99.90
2489;DHT22;1255;48.716;9.124;2022-09-13T05:49:00;13.20;99.90
2489;DHT22;1255;48.716;9.124;2022-09-13T05:51:28;13.20;99.90
2489;DHT22;1255;48.716;9.124;2022-09-13T05:53:56;13.20;99.90
2489;DHT22;1255;48.716;9.124;2022-09-13T05:56:25;13.20;99.90
2489;DHT22;1255;48.716;9.124;2022-09-13T05:58:53;13.30;99.90
2489;DHT22;1255;48.716;9.124;2022-09-13T06:01:21;13.30;99.90
2489;DHT22;1255;48.716;9.124;2022-09-13T06:03:49;13.30;99.90
2489;DHT22;1255;48.716;9.124;2022-09-13T06:06:17;13.30;99.90
2489;DHT22;1255;48.716;9.124;2022-09-13T06:08:46;13.40;99.90
2489;DHT22;1255;48.716;9.124;2022-09-13T06:11:14;13.40;99.90
2489;DHT22;1255;48.716;9.124;2022-09-13T06:13:41;13.40;99.90
2489;DHT22;1255;48.716;9.124;2022-09-13T06:16:10;13.50;99.90
2489;DHT22;1255;48.716;9.124;2022-09-13T06:18:37;13.60;99.90
2489;DHT22;1255;48.716;9.124;2022-09-13T06:21:06;13.60;99.90
2489;DHT22;1255;48.716;9.124;2022-09-13T06:23:33;13.70;99.90
2489;DHT22;1255;48.716;9.124;2022-09-13T06:26:04;13.70;99.90
2489;DHT22;1255;48.716;9.124;2022-09-13T06:28:33;13.80;99.90
2489;DHT22;1255;48.716;9.124;2022-09-13T06:31:01;13.80;99.90
2489;DHT22;1255;48.716;9.124;2022-09-13T06:33:27;13.90;99.90
2489;DHT22;1255;48.716;9.124;2022-09-13T06:35:54;13.90;99.90
2489;DHT22;1255;48.716;9.124;2022-09-13T06:38:25;13.90;99.90
2489;DHT22;1255;48.716;9.124;2022-09-13T06:40:59;13.90;99.90
2489;DHT22;1255;48.716;9.124;2022-09-13T06:43:27;13.90;99.90
2489;DHT22;1255;48.716;9.124;2022-09-13T06:45:58;14.00;99.90
2489;DHT22;1255;48.716;9.124;2022-09-13T06:48:25;14.10;99.90
2489;DHT22;1255;48.716;9.124;2022-09-13T06:50:56;14.10;99.90
2489;DHT22;1255;48.716;9.124;2022-09-13T06:53:23;14.20;99.90
2489;DHT22;1255;48.716;9.124;2022-09-13T06:55:59;14.40;99.90
2489;DHT22;1255;48.716;9.124;2022-09-13T06:58:28;14.50;99.90
2489;DHT22;1255;48.716;9.124;2022-09-13T07:01:05;14.60;99.90
2489;DHT22;1255;48.716;9.124;2022-09-13T07:03:34;14.70;99.90
2489;DHT22;1255;48.716;9.124;2022-09-13T07:06:06;14.80;99.90
2489;DHT22;1255;48.716;9.124;2022-09-13T07:08:33;15.00;99.90
2489;DHT22;1255;48.716;9.124;2022-09-13T07:10:59;15.10;99.90
2489;DHT22;1255;48.716;9.124;2022-09-13T07:13:28;15.30;99.90
2489;DHT22;1255;48.716;9.124;2022-09-13T07:15:54;15.40;99.90
2489;DHT22;1255;48.716;9.124;2022-09-13T07:18:21;15.60;99.90
2489;DHT22;1255;48.716;9.124;2022-09-13T07:20:48;15.70;99.90
2489;DHT22;1255;48.716;9.124;2022-09-13T07:23:15;15.80;99.90
2489;DHT22;1255;48.716;9.124;2022-09-13T07:25:41;15.80;99.90
2489;DHT22;1255;48.716;9.124;2022-09-13T07:28:08;16.00;99.90
2489;DHT22;1255;48.716;9.124;2022-09-13T07:30:36;16.10;99.90
2489;DHT22;1255;48.716;9.124;2022-09-13T07:33:03;16.20;99.90
2489;DHT22;1255;48.716;9.124;2022-09-13T07:35:30;16.30;99.90
2489;DHT22;1255;48.716;9.124;2022-09-13T07:37:56;16.40;99.90
2489;DHT22;1255;48.716;9.124;2022-09-13T07:40:23;16.50;99.90
2489;DHT22;1255;48.716;9.124;2022-09-13T07:42:50;16.60;99.90
2489;DHT22;1255;48.716;9.124;2022-09-13T07:45:17;16.80;99.90
2489;DHT22;1255;48.716;9.124;2022-09-13T07:47:45;16.90;99.90
2489;DHT22;1255;48.716;9.124;2022-09-13T07:50:13;17.10;99.90
2489;DHT22;1255;48.716;9.124;2022-09-13T07:52:40;17.40;99.90
2489;DHT22;1255;48.716;9.124;2022-09-13T07:55:07;17.50;99.90
2489;DHT22;1255;48.716;9.124;2022-09-13T07:57:34;17.70;99.90
2489;DHT22;1255;48.716;9.124;2022-09-13T08:00:01;17.80;99.90
2489;DHT22;1255;48.716;9.124;2022-09-13T08:02:28;18.00;99.90
2489;DHT22;1255;48.716;9.124;2022-09-13T08:04:56;18.20;99.90
2489;DHT22;1255;48.716;9.124;2022-09-13T08:07:23;18.50;99.90
2489;DHT22;1255;48.716;9.124;2022-09-13T08:09:50;18.70;99.90
2489;DHT22;1255;48.716;9.124;2022-09-13T08:12:16;18.90;99.90
2489;DHT22;1255;48.716;9.124;2022-09-13T08:14:43;19.10;99.90
2489;DHT22;1255;48.716;9.124;2022-09-13T08:17:10;19.30;99.90
2489;DHT22;1255;48.716;9.124;2022-09-13T08:19:37;19.40;99.90
2489;DHT22;1255;48.716;9.124;2022-09-13T08:22:05;19.50;99.90
2489;DHT22;1255;48.716;9.124;2022-09-13T08:24:32;19.60;99.90
2489;DHT22;1255;48.716;9.124;2022-09-13T08:26:58;19.60;99.90
2489;DHT22;1255;48.716;9.124;2022-09-13T08:29:25;19.60;99.90
2489;DHT22;1255;48.716;9.124;2022-09-13T08:31:52;19.70;99.90
2489;DHT22;1255;48.716;9.124;2022-09-13T08:34:19;19.80;99.90
2489;DHT22;1255;48.716;9.124;2022-09-13T08:36:46;19.80;99.90
2489;DHT22;1255;48.716;9.124;2022-09-13T08:39:14;20.00;99.90
2489;DHT22;1255;48.716;9.124;2022-09-13T08:42:00;20.10;99.90
2489;DHT22;1255;48.716;9.124;2022-09-13T08:44:31;20.30;99.90
2489;DHT22;1255;48.716;9.124;2022-09-13T08:47:03;20.40;99.90
2489;DHT22;1255;48.716;9.124;2022-09-13T08:49:34;20.50;99.90
2489;DHT22;1255;48.716;9.124;2022-09-13T08:52:16;20.80;99.90
2489;DHT22;1255;48.716;9.124;2022-09-13T08:54:48;20.90;99.90
2489;DHT22;1255;48.716;9.124;2022-09-13T08:57:18;21.00;99.90
2489;DHT22;1255;48.716;9.124;2022-09-13T08:59:53;21.10;99.90
2489;DHT22;1255;48.716;9.124;2022-09-13T09:02:44;21.10;99.90
2489;DHT22;1255;48.716;9.124;2022-09-13T09:05:16;21.10;99.90
2489;DHT22;1255;48.716;9.124;2022-09-13T09:07:46;21.10;99.90
2489;DHT22;1255;48.716;9.124;2022-09-13T09:10:20;21.20;99.90
2489;DHT22;1255;48.716;9.124;2022-09-13T09:12:50;21.40;99.90
2489;DHT22;1255;48.716;9.124;2022-09-13T09:15:22;21.60;99.90
2489;DHT22;1255;48.716;9.124;2022-09-13T09:17:56;21.80;99.90
2489;DHT22;1255;48.716;9.124;2022-09-13T09:20:27;21.90;99.90
2489;DHT22;1255;48.716;9.124;2022-09-13T09:23:00;22.00;99.90
2489;DHT22;1255;48.716;9.124;2022-09-13T09:25:30;22.00;99.90
2489;DHT22;1255;48.716;9.124;2022-09-13T09:27:57;21.90;99.90
2489;DHT22;1255;48.716;9.124;2022-09-13T09:30:30;22.00;99.90
2489;DHT22;1255;48.716;9.124;2022-09-13T09:35:56;22.50;99.90
2489;DHT22;1255;48.716;9.124;2022-09-13T09:38:32;22.70;99.90
2489;DHT22;1255;48.716;9.124;2022-09-13T09:41:05;22.80;99.90
2489;DHT22;1255;48.716;9.124;2022-09-13T09:43:40;23.00;99.90
2489;DHT22;1255;48.716;9.124;2022-09-13T09:46:11;23.00;99.90
2489;DHT22;1255;48.716;9.124;2022-09-13T09:48:44;23.00;99.90
2489;DHT22;1255;48.716;9.124;2022-09-13T09:51:14;23.10;99.90
2489;DHT22;1255;48.716;9.124;2022-09-13T09:53:46;23.20;99.90
2489;DHT22;1255;48.716;9.124;2022-09-13T09:56:26;23.40;99.90
2489;DHT22;1255;48.716;9.124;2022-09-13T09:58:54;23.50;99.90
2489;DHT22;1255;48.716;9.124;2022-09-13T10:01:23;23.60;99.90
2489;DHT22;1255;48.716;9.124;2022-09-13T10:03:53;23.60;99.90
2489;DHT22;1255;48.716;9.124;2022-09-13T10:06:24;23.70;99.90
2489;DHT22;1255;48.716;9.124;2022-09-13T10:08:55;23.70;99.90
2489;DHT22;1255;48.716;9.124;2022-09-13T10:11:41;23.90;99.90
2489;DHT22;1255;48.716;9.124;2022-09-13T10:17:16;24.20;99.90
2489;DHT22;1255;48.716;9.124;2022-09-13T10:19:56;24.30;99.90
2489;DHT22;1255;48.716;9.124;2022-09-13T10:22:24;24.30;99.90
2489;DHT22;1255;48.716;9.124;2022-09-13T10:24:51;24.30;99.90
2489;DHT22;1255;48.716;9.124;2022-09-13T10:27:24;24.30;99.90
2489;DHT22;1255;48.716;9.124;2022-09-13T10:29:54;24.40;99.90
2489;DHT22;1255;48.716;9.124;2022-09-13T10:32:24;24.60;99.90
2489;DHT22;1255;48.716;9.124;2022-09-13T10:34:52;24.70;99.90
2489;DHT22;1255;48.716;9.124;2022-09-13T10:37:21;24.90;99.90
2489;DHT22;1255;48.716;9.124;2022-09-13T10:39:57;24.90;99.90
2489;DHT22;1255;48.716;9.124;2022-09-13T10:42:28;25.10;99.90
2489;DHT22;1255;48.716;9.124;2022-09-13T10:44:57;25.20;99.90
2489;DHT22;1255;48.716;9.124;2022-09-13T10:47:28;25.40;99.90
2489;DHT22;1255;48.716;9.124;2022-09-13T10:49:58;25.60;99.90
2489;DHT22;1255;48.716;9.124;2022-09-13T10:52:42;25.80;99.90
2489;DHT22;1255;48.716;9.124;2022-09-13T10:55:30;26.00;99.90
2489;DHT22;1255;48.716;9.124;2022-09-13T10:58:18;26.20;99.90
2489;DHT22;1255;48.716;9.124;2022-09-13T11:06:51;26.60;99.90
2489;DHT22;1255;48.716;9.124;2022-09-13T11:09:27;26.80;99.90
2489;DHT22;1255;48.716;9.124;2022-09-13T11:12:01;26.90;99.90
2489;DHT22;1255;48.716;9.124;2022-09-13T11:14:47;27.10;99.90
2489;DHT22;1255;48.716;9.124;2022-09-13T11:17:22;27.30;99.90
2489;DHT22;1255;48.716;9.124;2022-09-13T11:20:00;27.40;99.90
2489;DHT22;1255;48.716;9.124;2022-09-13T11:25:15;27.50;99.00
2489;DHT22;1255;48.716;9.124;2022-09-13T11:27:53;27.60;99.00
2489;DHT22;1255;48.716;9.124;2022-09-13T11:30:26;27.60;99.30
2489;DHT22;1255;48.716;9.124;2022-09-13T11:33:14;27.60;97.70
2489;DHT22;1255;48.716;9.124;2022-09-13T11:36:22;27.70;98.30
2489;DHT22;1255;48.716;9.124;2022-09-13T11:39:01;27.40;93.20
2489;DHT22;1255;48.716;9.124;2022-09-13T11:41:37;27.40;97.40
2489;DHT22;1255;48.716;9.124;2022-09-13T11:44:25;27.50;96.20
2489;DHT22;1255;48.716;9.124;2022-09-13T11:47:00;27.40;97.70
2489;DHT22;1255;48.716;9.124;2022-09-13T11:49:53;27.50;97.30
2489;DHT22;1255;48.716;9.124;2022-09-13T11:52:32;27.50;96.90
2489;DHT22;1255;48.716;9.124;2022-09-13T11:55:13;27.20;92.80
2489;DHT22;1255;48.716;9.124;2022-09-13T11:57:45;27.10;95.40
2489;DHT22;1255;48.716;9.124;2022-09-13T12:00:18;27.00;93.60
2489;DHT22;1255;48.716;9.124;2022-09-13T12:02:57;26.80;93.00
2489;DHT22;1255;48.716;9.124;2022-09-13T12:05:27;26.70;96.30
2489;DHT22;1255;48.716;9.124;2022-09-13T12:08:00;26.50;97.80
2489;DHT22;1255;48.716;9.124;2022-09-13T12:10:31;26.40;95.40
2489;DHT22;1255;48.716;9.124;2022-09-13T12:13:01;26.20;95.70
2489;DHT22;1255;48.716;9.124;2022-09-13T12:15:34;26.00;94.90
2489;DHT22;1255;48.716;9.124;2022-09-13T12:18:05;25.90;96.90
2489;DHT22;1255;48.716;9.124;2022-09-13T12:20:37;25.80;96.60
2489;DHT22;1255;48.716;9.124;2022-09-13T12:23:11;25.80;96.20
2489;DHT22;1255;48.716;9.124;2022-09-13T12:25:45;25.80;99.90
2489;DHT22;1255;48.716;9.124;2022-09-13T12:28:17;25.70;97.60
2489;DHT22;1255;48.716;9.124;2022-09-13T12:30:51;25.80;97.30
2489;DHT22;1255;48.716;9.124;2022-09-13T12:33:21;26.00;97.40
2489;DHT22;1255;48.716;9.124;2022-09-13T12:36:03;26.20;99.60
2489;DHT22;1255;48.716;9.124;2022-09-13T12:38:55;26.30;98.00
2489;DHT22;1255;48.716;9.124;2022-09-13T12:41:41;26.30;96.90
2489;DHT22;1255;48.716;9.124;2022-09-13T12:44:30;26.30;98.20
2489;DHT22;1255;48.716;9.124;2022-09-13T12:47:19;26.40;99.40
2489;DHT22;1255;48.716;9.124;2022-09-13T12:50:12;26.40;98.00
2489;DHT22;1255;48.716;9.124;2022-09-13T12:52:49;26.40;98.70
2489;DHT22;1255;48.716;9.124;2022-09-13T12:58:42;26.50;98.50
2489;DHT22;1255;48.716;9.124;2022-09-13T13:01:15;26.40;97.20
2489;DHT22;1255;48.716;9.124;2022-09-13T13:03:47;26.50;98.10
2489;DHT22;1255;48.716;9.124;2022-09-13T13:06:27;26.70;99.20
2489;DHT22;1255;48.716;9.124;2022-09-13T13:08:57;26.80;98.60
2489;DHT22;1255;48.716;9.124;2022-09-13T13:11:26;26.80;98.30
2489;DHT22;1255;48.716;9.124;2022-09-13T13:13:55;26.90;99.90
2489;DHT22;1255;48.716;9.124;2022-09-13T13:16:27;27.00;99.20
2489;DHT22;1255;48.716;9.124;2022-09-13T13:18:55;27.00;98.20
2489;DHT22;1255;48.716;9.124;2022-09-13T13:21:29;27.10;98.40
2489;DHT22;1255;48.716;9.124;2022-09-13T13:27:32;27.10;96.50
2489;DHT22;1255;48.716;9.124;2022-09-13T13:33:10;27.10;95.00
2489;DHT22;1255;48.716;9.124;2022-09-13T13:35:37;27.30;96.60
2489;DHT22;1255;48.716;9.124;2022-09-13T13:38:18;27.50;96.30
2489;DHT22;1255;48.716;9.124;2022-09-13T13:41:05;27.70;97.80
2489;DHT22;1255;48.716;9.124;2022-09-13T13:43:34;27.80;96.90
2489;DHT22;1255;48.716;9.124;2022-09-13T13:46:25;27.90;96.60
2489;DHT22;1255;48.716;9.124;2022-09-13T13:48:52;27.80;91.90
2489;DHT22;1255;48.716;9.124;2022-09-13T13:51:24;27.80;96.10
2489;DHT22;1255;48.716;9.124;2022-09-13T13:53:56;27.80;95.70
2489;DHT22;1255;48.716;9.124;2022-09-13T13:56:45;27.50;92.50
2489;DHT22;1255;48.716;9.124;2022-09-13T13:59:17;27.50;96.90
2489;DHT22;1255;48.716;9.124;2022-09-13T14:01:47;27.50;94.70
2489;DHT22;1255;48.716;9.124;2022-09-13T14:04:43;27.50;95.70
2489;DHT22;1255;48.716;9.124;2022-09-13T14:07:23;27.60;93.90
2489;DHT22;1255;48.716;9.124;2022-09-13T14:09:59;27.70;95.10
2489;DHT22;1255;48.716;9.124;2022-09-13T14:12:45;27.70;91.70
2489;DHT22;1255;48.716;9.124;2022-09-13T14:15:28;27.80;94.80
2489;DHT22;1255;48.716;9.124;2022-09-13T14:18:26;27.90;96.10
2489;DHT22;1255;48.716;9.124;2022-09-13T14:21:00;27.90;95.40
2489;DHT22;1255;48.716;9.124;2022-09-13T14:23:27;27.90;94.50
2489;DHT22;1255;48.716;9.124;2022-09-13T14:25:57;27.80;95.00
2489;DHT22;1255;48.716;9.124;2022-09-13T14:28:25;27.70;94.90
2489;DHT22;1255;48.716;9.124;2022-09-13T14:30:54;27.90;96.00
2489;DHT22;1255;48.716;9.124;2022-09-13T14:33:24;27.90;93.70
2489;DHT22;1255;48.716;9.124;2022-09-13T14:36:00;28.00;93.30
2489;DHT22;1255;48.716;9.124;2022-09-13T14:38:29;28.10;95.00
2489;DHT22;1255;48.716;9.124;2022-09-13T14:41:08;28.20;95.00
2489;DHT22;1255;48.716;9.124;2022-09-13T14:43:36;28.30;96.00
2489;DHT22;1255;48.716;9.124;2022-09-13T14:46:06;28.30;92.70
2489;DHT22;1255;48.716;9.124;2022-09-13T14:48:38;28.10;94.00
2489;DHT22;1255;48.716;9.124;2022-09-13T14:51:12;28.00;94.00
2489;DHT22;1255;48.716;9.124;2022-09-13T14:53:42;27.90;93.70
2489;DHT22;1255;48.716;9.124;2022-09-13T14:56:15;27.70;94.80
2489;DHT22;1255;48.716;9.124;2022-09-13T14:58:45;27.40;93.30
2489;DHT22;1255;48.716;9.124;2022-09-13T15:01:15;27.30;93.10
2489;DHT22;1255;48.716;9.124;2022-09-13T15:03:43;27.10;93.00
2489;DHT22;1255;48.716;9.124;2022-09-13T15:06:21;27.10;94.90
2489;DHT22;1255;48.716;9.124;2022-09-13T15:08:49;27.00;95.10
2489;DHT22;1255;48.716;9.124;2022-09-13T15:11:32;26.90;95.30
2489;DHT22;1255;48.716;9.124;2022-09-13T15:14:21;26.80;94.70
2489;DHT22;1255;48.716;9.124;2022-09-13T15:16:50;26.80;95.40
2489;DHT22;1255;48.716;9.124;2022-09-13T15:19:28;26.70;95.20
2489;DHT22;1255;48.716;9.124;2022-09-13T15:22:03;26.70;95.50
2489;DHT22;1255;48.716;9.124;2022-09-13T15:24:32;26.70;94.60
2489;DHT22;1255;48.716;9.124;2022-09-13T15:27:14;26.70;95.40
2489;DHT22;1255;48.716;9.124;2022-09-13T15:29:47;26.80;95.90
2489;DHT22;1255;48.716;9.124;2022-09-13T15:32:20;26.80;93.10
2489;DHT22;1255;48.716;9.124;2022-09-13T15:34:48;26.70;93.50
2489;DHT22;1255;48.716;9.124;2022-09-13T15:37:15;26.60;93.90
2489;DHT22;1255;48.716;9.124;2022-09-13T15:39:46;26.50;95.10
2489;DHT22;1255;48.716;9.124;2022-09-13T15:42:16;26.40;92.60
2489;DHT22;1255;48.716;9.124;2022-09-13T15:44:43;26.30;91.40
2489;DHT22;1255;48.716;9.124;2022-09-13T15:47:14;26.20;92.60
2489;DHT22;1255;48.716;9.124;2022-09-13T15:49:48;26.10;92.60
2489;DHT22;1255;48.716;9.124;2022-09-13T15:52:16;26.00;93.40
2489;DHT22;1255;48.716;9.124;2022-09-13T15:54:46;25.90;93.70
2489;DHT22;1255;48.716;9.124;2022-09-13T15:57:16;25.80;92.40
2489;DHT22;1255;48.716;9.124;2022-09-13T15:59:45;25.80;94.00
2489;DHT22;1255;48.716;9.124;2022-09-13T16:02:19;25.60;94.90
2489;DHT22;1255;48.716;9.124;2022-09-13T16:04:47;25.60;92.70
2489;DHT22;1255;48.716;9.124;2022-09-13T16:07:14;25.50;94.80
2489;DHT22;1255;48.716;9.124;2022-09-13T16:09:41;25.40;94.90
2489;DHT22;1255;48.716;9.124;2022-09-13T16:12:08;25.20;93.40
2489;DHT22;1255;48.716;9.124;2022-09-13T16:14:36;25.20;93.10
2489;DHT22;1255;48.716;9.124;2022-09-13T16:17:06;25.10;94.50
2489;DHT22;1255;48.716;9.124;2022-09-13T16:19:33;25.00;95.30
2489;DHT22;1255;48.716;9.124;2022-09-13T16:22:00;24.90;96.60
2489;DHT22;1255;48.716;9.124;2022-09-13T16:24:27;24.90;96.40
2489;DHT22;1255;48.716;9.124;2022-09-13T16:26:53;24.70;97.50
2489;DHT22;1255;48.716;9.124;2022-09-13T16:29:20;24.70;98.20
2489;DHT22;1255;48.716;9.124;2022-09-13T16:31:48;24.60;98.00
2489;DHT22;1255;48.716;9.124;2022-09-13T16:34:15;24.50;97.00
2489;DHT22;1255;48.716;9.124;2022-09-13T16:36:41;24.40;97.50
2489;DHT22;1255;48.716;9.124;2022-09-13T16:39:08;24.40;97.30
2489;DHT22;1255;48.716;9.124;2022-09-13T16:41:37;24.30;99.10
2489;DHT22;1255;48.716;9.124;2022-09-13T16:44:03;24.30;99.90
2489;DHT22;1255;48.716;9.124;2022-09-13T16:46:30;24.20;99.50
2489;DHT22;1255;48.716;9.124;2022-09-13T16:48:59;24.10;99.90
2489;DHT22;1255;48.716;9.124;2022-09-13T16:51:26;24.00;99.90
2489;DHT22;1255;48.716;9.124;2022-09-13T16:53:53;23.90;99.90
2489;DHT22;1255;48.716;9.124;2022-09-13T16:56:21;23.80;99.90
2489;DHT22;1255;48.716;9.124;2022-09-13T16:58:49;23.70;99.90
2489;DHT22;1255;48.716;9.124;2022-09-13T17:01:18;23.60;99.90
2489;DHT22;1255;48.716;9.124;2022-09-13T17:03:45;23.50;99.90
2489;DHT22;1255;48.716;9.124;2022-09-13T17:06:15;23.40;99.90